Satanta, KS

9:12 PM CDT en Septiembre 02, 2014 (GMT -0500)
Country | Change Station
CLOSE
Current Station
Estación meteorológica personal
Location: Kismet, KS
Altura: 2791 ft
Estaciones meteorológicas cercanas

Alt 2791 ft 37.26 °N, 100.91 °W | Updated 19 seconds ago

Despejado
Despejado
74.9 ° F
Sensación térmica 75 ° F
N
0.0
Viento Variable Viento desde SE
Gusts 7.0 mph

Hoy
Alta -- | Baja -- ° F
--% Posibilidad de precipitaciones
Ayer
Alta -- | Baja -- ° F
Precip. -- pul
7:15 AM 8:11 PM
Cuarto creciente, 57% visible
Presión 29.94 pul
Visibilidad 10.0 Millas
Nubes Despejado
Índice de calor 75 ° F
Punto de rocío 69 ° F
Humedad 81%
Precipitaciones 0.00 pul
Espesor de la nieve No disponible.
UV 0 de una escala de 12
Polen 10.00 de una escala de 12
Calidad del aire No disponible.
Flu Activity No disponible.
METAR KLBL 030155Z AUTO 10010KT 10SM CLR 27/19 A2994 RMK AO1

More Conditions Fewer Conditions

Presión 29.94 pul
Visibilidad 10.0 Millas
Nubes Despejado
Índice de calor 75 ° F
Punto de rocío 69 ° F
Humedad 81%
Precipitaciones 0.00 pul
Espesor de la nieve No disponible.
UV 0 de una escala de 12
Polen 10.00 de una escala de 12
Calidad del aire No disponible.
Flu Activity No disponible.
METAR KLBL 030155Z AUTO 10010KT 10SM CLR 27/19 A2994 RMK AO1

More Conditions Fewer Conditions

10-Day Weather Forecast

Almanac

Astronomía

Sep. 02, 2014 Salida Puesta
Hora real 7:15 AM CDT 8:11 PM CDT
Crepúsculo civil 6:48 AM CDT 8:38 PM CDT
Crepúsculo náutico 6:16 AM CDT 9:09 PM CDT
Crepúsculo astronómico 5:44 AM CDT 9:42 PM CDT
Luna 2:52 PM CDT (9/2) 12:24 AM CDT (9/2)
Horas de luz 13h 49m
Horas de luz
12h 56m
Tomorrow will be 2m 19s shorter.
Cuarto creciente, 57% of the Moon is Illuminated
Hoy
Cuarto creciente
Sep 8
Luna llena
Sep 15
Cuarto menguante
Sep 24
Nueva
Oct 1
Cuarto creciente

Extremos de hoy

Máximos del estado Bajos del estado

Community

WunderPhotos

Upload Photos

1,749,841 ¡fotos cargadas!

Nearby

Grosos de nieve

Estación Profundido Altura
No tenemos constancia de nieve nueva.

Actividad de terremotos

Ciudad Distance Mag. Tiempo y dato
No hay informes recientes de la actividad sísmica.
Magnitud mínima muestra es 2,5.

Temperaturas de aguas costeras

Lugar Temperatura
Sin partes meteorológicos de las estaciones

Estaciones meteorológicas cercanas